sensor_id;sensor_type;location;lat;lon;timestamp;temperature;humidity
13251;DHT22;6692;50.710;7.180;2024-01-16T00:00:40;2.40;99.90
13251;DHT22;6692;50.710;7.180;2024-01-16T00:02:41;2.40;99.90
13251;DHT22;6692;50.710;7.180;2024-01-16T00:04:42;2.40;99.90
13251;DHT22;6692;50.710;7.180;2024-01-16T00:06:43;2.40;99.90
13251;DHT22;6692;50.710;7.180;2024-01-16T00:08:44;2.40;99.90
13251;DHT22;6692;50.710;7.180;2024-01-16T00:10:45;2.40;99.90
13251;DHT22;6692;50.710;7.180;2024-01-16T00:12:46;2.40;99.90
13251;DHT22;6692;50.710;7.180;2024-01-16T00:14:47;2.40;99.90
13251;DHT22;6692;50.710;7.180;2024-01-16T00:16:48;2.40;99.90
13251;DHT22;6692;50.710;7.180;2024-01-16T00:18:49;2.40;99.90
13251;DHT22;6692;50.710;7.180;2024-01-16T00:20:49;2.40;99.90
13251;DHT22;6692;50.710;7.180;2024-01-16T00:22:50;2.40;99.90
13251;DHT22;6692;50.710;7.180;2024-01-16T00:24:51;2.40;99.90
13251;DHT22;6692;50.710;7.180;2024-01-16T00:26:52;2.40;99.90
13251;DHT22;6692;50.710;7.180;2024-01-16T00:28:53;2.40;99.90
13251;DHT22;6692;50.710;7.180;2024-01-16T00:30:54;2.40;99.90
13251;DHT22;6692;50.710;7.180;2024-01-16T00:32:55;2.30;99.90
13251;DHT22;6692;50.710;7.180;2024-01-16T00:34:56;2.40;99.90
13251;DHT22;6692;50.710;7.180;2024-01-16T00:36:56;2.30;99.90
13251;DHT22;6692;50.710;7.180;2024-01-16T00:38:58;2.30;99.90
13251;DHT22;6692;50.710;7.180;2024-01-16T00:40:58;2.30;99.90
13251;DHT22;6692;50.710;7.180;2024-01-16T00:42:59;2.30;99.90
13251;DHT22;6692;50.710;7.180;2024-01-16T00:45:00;2.30;99.90
13251;DHT22;6692;50.710;7.180;2024-01-16T00:47:01;2.30;99.90
13251;DHT22;6692;50.710;7.180;2024-01-16T00:49:01;2.30;99.90
13251;DHT22;6692;50.710;7.180;2024-01-16T00:51:02;2.30;99.90
13251;DHT22;6692;50.710;7.180;2024-01-16T00:53:03;2.30;99.90
13251;DHT22;6692;50.710;7.180;2024-01-16T00:55:05;2.30;99.90
13251;DHT22;6692;50.710;7.180;2024-01-16T00:57:05;2.30;99.90
13251;DHT22;6692;50.710;7.180;2024-01-16T00:59:07;2.30;99.90
13251;DHT22;6692;50.710;7.180;2024-01-16T01:01:08;2.30;99.90
13251;DHT22;6692;50.710;7.180;2024-01-16T01:03:08;2.30;99.90
13251;DHT22;6692;50.710;7.180;2024-01-16T01:05:09;2.30;99.90
13251;DHT22;6692;50.710;7.180;2024-01-16T01:07:12;2.30;99.90
13251;DHT22;6692;50.710;7.180;2024-01-16T01:09:10;2.20;99.90
13251;DHT22;6692;50.710;7.180;2024-01-16T01:11:12;2.30;99.90
13251;DHT22;6692;50.710;7.180;2024-01-16T01:13:13;2.20;99.90
13251;DHT22;6692;50.710;7.180;2024-01-16T01:15:13;2.30;99.90
13251;DHT22;6692;50.710;7.180;2024-01-16T01:17:14;2.30;99.90
13251;DHT22;6692;50.710;7.180;2024-01-16T01:19:15;2.30;99.90
13251;DHT22;6692;50.710;7.180;2024-01-16T01:21:16;2.30;99.90
13251;DHT22;6692;50.710;7.180;2024-01-16T01:23:17;2.30;99.90
13251;DHT22;6692;50.710;7.180;2024-01-16T01:25:18;2.30;99.90
13251;DHT22;6692;50.710;7.180;2024-01-16T01:27:19;2.30;99.90
13251;DHT22;6692;50.710;7.180;2024-01-16T01:29:19;2.30;99.90
13251;DHT22;6692;50.710;7.180;2024-01-16T01:31:20;2.30;99.90
13251;DHT22;6692;50.710;7.180;2024-01-16T01:33:21;2.30;99.90
13251;DHT22;6692;50.710;7.180;2024-01-16T01:35:22;2.30;99.90
13251;DHT22;6692;50.710;7.180;2024-01-16T01:37:22;2.30;99.90
13251;DHT22;6692;50.710;7.180;2024-01-16T01:39:23;2.30;99.90
13251;DHT22;6692;50.710;7.180;2024-01-16T01:41:24;2.30;99.90
13251;DHT22;6692;50.710;7.180;2024-01-16T01:43:25;2.30;99.90
13251;DHT22;6692;50.710;7.180;2024-01-16T01:45:27;2.30;99.90
13251;DHT22;6692;50.710;7.180;2024-01-16T01:47:29;2.30;99.90
13251;DHT22;6692;50.710;7.180;2024-01-16T01:49:30;2.30;99.90
13251;DHT22;6692;50.710;7.180;2024-01-16T01:51:29;2.40;99.90
13251;DHT22;6692;50.710;7.180;2024-01-16T01:53:30;2.40;99.90
13251;DHT22;6692;50.710;7.180;2024-01-16T01:55:31;2.40;99.90
13251;DHT22;6692;50.710;7.180;2024-01-16T01:57:32;2.40;99.90
13251;DHT22;6692;50.710;7.180;2024-01-16T01:59:32;2.40;99.90
13251;DHT22;6692;50.710;7.180;2024-01-16T02:01:33;2.40;99.90
13251;DHT22;6692;50.710;7.180;2024-01-16T02:03:35;2.40;99.90
13251;DHT22;6692;50.710;7.180;2024-01-16T02:05:34;2.40;99.90
13251;DHT22;6692;50.710;7.180;2024-01-16T02:07:35;2.40;99.90
13251;DHT22;6692;50.710;7.180;2024-01-16T02:09:36;2.40;99.90
13251;DHT22;6692;50.710;7.180;2024-01-16T02:11:37;2.40;99.90
13251;DHT22;6692;50.710;7.180;2024-01-16T02:13:38;2.40;99.90
13251;DHT22;6692;50.710;7.180;2024-01-16T02:15:39;2.40;99.90
13251;DHT22;6692;50.710;7.180;2024-01-16T02:17:39;2.40;99.90
13251;DHT22;6692;50.710;7.180;2024-01-16T02:19:40;2.40;99.90
13251;DHT22;6692;50.710;7.180;2024-01-16T02:21:47;2.40;99.90
13251;DHT22;6692;50.710;7.180;2024-01-16T02:23:47;2.40;99.90
13251;DHT22;6692;50.710;7.180;2024-01-16T02:25:49;2.20;99.90
13251;DHT22;6692;50.710;7.180;2024-01-16T02:27:49;2.20;99.90
13251;DHT22;6692;50.710;7.180;2024-01-16T02:29:50;2.20;99.90
13251;DHT22;6692;50.710;7.180;2024-01-16T02:31:51;2.10;99.90
13251;DHT22;6692;50.710;7.180;2024-01-16T02:33:52;2.00;99.90
13251;DHT22;6692;50.710;7.180;2024-01-16T02:35:53;1.90;99.90
13251;DHT22;6692;50.710;7.180;2024-01-16T02:37:54;1.90;99.90
13251;DHT22;6692;50.710;7.180;2024-01-16T02:39:54;1.90;99.90
13251;DHT22;6692;50.710;7.180;2024-01-16T02:41:55;1.90;99.90
13251;DHT22;6692;50.710;7.180;2024-01-16T02:43:56;1.80;99.90
13251;DHT22;6692;50.710;7.180;2024-01-16T02:45:57;1.80;99.90
13251;DHT22;6692;50.710;7.180;2024-01-16T02:47:58;1.80;99.90
13251;DHT22;6692;50.710;7.180;2024-01-16T02:49:59;1.80;99.90
13251;DHT22;6692;50.710;7.180;2024-01-16T02:51:59;1.80;99.90
13251;DHT22;6692;50.710;7.180;2024-01-16T02:54:00;1.80;99.90
13251;DHT22;6692;50.710;7.180;2024-01-16T02:56:01;1.80;99.90
13251;DHT22;6692;50.710;7.180;2024-01-16T02:58:01;1.80;99.90
13251;DHT22;6692;50.710;7.180;2024-01-16T03:00:02;1.90;99.90
13251;DHT22;6692;50.710;7.180;2024-01-16T03:02:03;1.90;99.90
13251;DHT22;6692;50.710;7.180;2024-01-16T03:04:05;1.90;99.90
13251;DHT22;6692;50.710;7.180;2024-01-16T03:06:05;1.90;99.90
13251;DHT22;6692;50.710;7.180;2024-01-16T03:08:06;1.90;99.90
13251;DHT22;6692;50.710;7.180;2024-01-16T03:10:08;1.90;99.90
13251;DHT22;6692;50.710;7.180;2024-01-16T03:12:10;1.90;99.90
13251;DHT22;6692;50.710;7.180;2024-01-16T03:14:10;1.90;99.90
13251;DHT22;6692;50.710;7.180;2024-01-16T03:16:11;1.90;99.90
13251;DHT22;6692;50.710;7.180;2024-01-16T03:18:12;1.90;99.90
13251;DHT22;6692;50.710;7.180;2024-01-16T03:20:13;1.90;99.90
13251;DHT22;6692;50.710;7.180;2024-01-16T03:22:14;1.90;99.90
13251;DHT22;6692;50.710;7.180;2024-01-16T03:24:15;2.00;99.90
13251;DHT22;6692;50.710;7.180;2024-01-16T03:26:16;1.90;99.90
13251;DHT22;6692;50.710;7.180;2024-01-16T03:28:16;2.00;99.90
13251;DHT22;6692;50.710;7.180;2024-01-16T03:30:17;2.00;99.90
13251;DHT22;6692;50.710;7.180;2024-01-16T03:32:18;2.00;99.90
13251;DHT22;6692;50.710;7.180;2024-01-16T03:34:18;2.00;99.90
13251;DHT22;6692;50.710;7.180;2024-01-16T03:36:19;2.00;99.90
13251;DHT22;6692;50.710;7.180;2024-01-16T03:38:20;2.00;99.90
13251;DHT22;6692;50.710;7.180;2024-01-16T03:40:20;2.00;99.90
13251;DHT22;6692;50.710;7.180;2024-01-16T03:42:21;2.00;99.90
13251;DHT22;6692;50.710;7.180;2024-01-16T03:44:22;2.00;99.90
13251;DHT22;6692;50.710;7.180;2024-01-16T03:46:23;2.00;99.90
13251;DHT22;6692;50.710;7.180;2024-01-16T03:48:23;2.00;99.90
13251;DHT22;6692;50.710;7.180;2024-01-16T03:50:24;2.00;99.90
13251;DHT22;6692;50.710;7.180;2024-01-16T03:52:25;2.00;99.90
13251;DHT22;6692;50.710;7.180;2024-01-16T03:54:26;2.00;99.90
13251;DHT22;6692;50.710;7.180;2024-01-16T03:56:27;2.00;99.90
13251;DHT22;6692;50.710;7.180;2024-01-16T03:58:28;2.00;99.90
13251;DHT22;6692;50.710;7.180;2024-01-16T04:00:28;2.00;99.90
13251;DHT22;6692;50.710;7.180;2024-01-16T04:02:29;2.00;99.90
13251;DHT22;6692;50.710;7.180;2024-01-16T04:04:30;2.00;99.90
13251;DHT22;6692;50.710;7.180;2024-01-16T04:06:30;2.00;99.90
13251;DHT22;6692;50.710;7.180;2024-01-16T04:08:33;2.00;99.90
13251;DHT22;6692;50.710;7.180;2024-01-16T04:10:32;2.00;99.90
13251;DHT22;6692;50.710;7.180;2024-01-16T04:12:32;1.90;99.90
13251;DHT22;6692;50.710;7.180;2024-01-16T04:14:33;1.90;99.90
13251;DHT22;6692;50.710;7.180;2024-01-16T04:16:34;1.80;99.90
13251;DHT22;6692;50.710;7.180;2024-01-16T04:18:36;1.80;99.90
13251;DHT22;6692;50.710;7.180;2024-01-16T04:20:36;1.70;99.90
13251;DHT22;6692;50.710;7.180;2024-01-16T04:22:38;1.70;99.90
13251;DHT22;6692;50.710;7.180;2024-01-16T04:24:38;1.70;99.90
13251;DHT22;6692;50.710;7.180;2024-01-16T04:26:39;1.60;99.90
13251;DHT22;6692;50.710;7.180;2024-01-16T04:28:40;1.60;99.90
13251;DHT22;6692;50.710;7.180;2024-01-16T04:30:40;1.60;99.90
13251;DHT22;6692;50.710;7.180;2024-01-16T04:32:41;1.60;99.90
13251;DHT22;6692;50.710;7.180;2024-01-16T04:34:42;1.60;99.90
13251;DHT22;6692;50.710;7.180;2024-01-16T04:36:43;1.60;99.90
13251;DHT22;6692;50.710;7.180;2024-01-16T04:38:44;1.60;99.90
13251;DHT22;6692;50.710;7.180;2024-01-16T04:40:45;1.60;99.90
13251;DHT22;6692;50.710;7.180;2024-01-16T04:42:45;1.60;99.90
13251;DHT22;6692;50.710;7.180;2024-01-16T04:44:47;1.60;99.90
13251;DHT22;6692;50.710;7.180;2024-01-16T04:46:47;1.60;99.90
13251;DHT22;6692;50.710;7.180;2024-01-16T04:48:48;1.60;99.90
13251;DHT22;6692;50.710;7.180;2024-01-16T04:50:49;1.60;99.90
13251;DHT22;6692;50.710;7.180;2024-01-16T04:52:50;1.60;99.90
13251;DHT22;6692;50.710;7.180;2024-01-16T04:54:50;1.70;99.90
13251;DHT22;6692;50.710;7.180;2024-01-16T04:56:52;1.70;99.90
13251;DHT22;6692;50.710;7.180;2024-01-16T04:58:52;1.60;99.90
13251;DHT22;6692;50.710;7.180;2024-01-16T05:00:53;1.70;99.90
13251;DHT22;6692;50.710;7.180;2024-01-16T05:02:54;1.70;99.90
13251;DHT22;6692;50.710;7.180;2024-01-16T05:04:55;1.70;99.90
13251;DHT22;6692;50.710;7.180;2024-01-16T05:06:56;1.60;99.90
13251;DHT22;6692;50.710;7.180;2024-01-16T05:08:57;1.70;99.90
13251;DHT22;6692;50.710;7.180;2024-01-16T05:10:57;1.70;99.90
13251;DHT22;6692;50.710;7.180;2024-01-16T05:12:58;1.70;99.90
13251;DHT22;6692;50.710;7.180;2024-01-16T05:14:59;1.70;99.90
13251;DHT22;6692;50.710;7.180;2024-01-16T05:17:00;1.70;99.90
13251;DHT22;6692;50.710;7.180;2024-01-16T05:19:00;1.70;99.90
13251;DHT22;6692;50.710;7.180;2024-01-16T05:21:01;1.70;99.90
13251;DHT22;6692;50.710;7.180;2024-01-16T05:23:02;1.70;99.90
13251;DHT22;6692;50.710;7.180;2024-01-16T05:25:03;1.70;99.90
13251;DHT22;6692;50.710;7.180;2024-01-16T05:27:04;1.70;99.90
13251;DHT22;6692;50.710;7.180;2024-01-16T05:29:06;1.70;99.90
13251;DHT22;6692;50.710;7.180;2024-01-16T05:31:06;1.70;99.90
13251;DHT22;6692;50.710;7.180;2024-01-16T05:33:08;1.70;99.90
13251;DHT22;6692;50.710;7.180;2024-01-16T05:35:08;1.70;99.90
13251;DHT22;6692;50.710;7.180;2024-01-16T05:37:09;1.70;99.90
13251;DHT22;6692;50.710;7.180;2024-01-16T05:39:09;1.70;99.90
13251;DHT22;6692;50.710;7.180;2024-01-16T05:41:10;1.70;99.90
13251;DHT22;6692;50.710;7.180;2024-01-16T05:43:11;1.80;99.90
13251;DHT22;6692;50.710;7.180;2024-01-16T05:45:12;1.80;99.90
13251;DHT22;6692;50.710;7.180;2024-01-16T05:47:13;1.80;99.90
13251;DHT22;6692;50.710;7.180;2024-01-16T05:49:14;1.70;99.90
13251;DHT22;6692;50.710;7.180;2024-01-16T05:51:14;1.70;99.90
13251;DHT22;6692;50.710;7.180;2024-01-16T05:53:15;1.80;99.90
13251;DHT22;6692;50.710;7.180;2024-01-16T05:55:16;1.80;99.90
13251;DHT22;6692;50.710;7.180;2024-01-16T05:57:17;1.80;99.90
13251;DHT22;6692;50.710;7.180;2024-01-16T05:59:17;1.80;99.90
13251;DHT22;6692;50.710;7.180;2024-01-16T06:01:18;1.80;99.90
13251;DHT22;6692;50.710;7.180;2024-01-16T06:03:19;1.70;99.90
13251;DHT22;6692;50.710;7.180;2024-01-16T06:05:20;1.80;99.90
13251;DHT22;6692;50.710;7.180;2024-01-16T06:07:20;1.80;99.90
13251;DHT22;6692;50.710;7.180;2024-01-16T06:09:22;1.80;99.90
13251;DHT22;6692;50.710;7.180;2024-01-16T06:11:29;1.80;99.90
13251;DHT22;6692;50.710;7.180;2024-01-16T06:13:29;1.80;99.90
13251;DHT22;6692;50.710;7.180;2024-01-16T06:15:30;1.80;99.90
13251;DHT22;6692;50.710;7.180;2024-01-16T06:17:31;1.80;99.90
13251;DHT22;6692;50.710;7.180;2024-01-16T06:19:32;1.80;99.90
13251;DHT22;6692;50.710;7.180;2024-01-16T06:21:33;1.90;99.90
13251;DHT22;6692;50.710;7.180;2024-01-16T06:23:34;1.80;99.90
13251;DHT22;6692;50.710;7.180;2024-01-16T06:25:34;1.80;99.90
13251;DHT22;6692;50.710;7.180;2024-01-16T06:27:35;1.80;99.90
13251;DHT22;6692;50.710;7.180;2024-01-16T06:29:36;1.90;99.90
13251;DHT22;6692;50.710;7.180;2024-01-16T06:31:37;1.90;99.90
13251;DHT22;6692;50.710;7.180;2024-01-16T06:33:38;1.90;99.90
13251;DHT22;6692;50.710;7.180;2024-01-16T06:35:39;1.90;99.90
13251;DHT22;6692;50.710;7.180;2024-01-16T06:37:39;1.80;99.90
13251;DHT22;6692;50.710;7.180;2024-01-16T06:39:40;1.80;99.90
13251;DHT22;6692;50.710;7.180;2024-01-16T06:41:41;1.80;99.90
13251;DHT22;6692;50.710;7.180;2024-01-16T06:43:41;1.80;99.90
13251;DHT22;6692;50.710;7.180;2024-01-16T06:45:42;1.90;99.90
13251;DHT22;6692;50.710;7.180;2024-01-16T06:47:43;1.90;99.90
13251;DHT22;6692;50.710;7.180;2024-01-16T06:49:43;1.90;99.90
13251;DHT22;6692;50.710;7.180;2024-01-16T06:51:44;1.90;99.90
13251;DHT22;6692;50.710;7.180;2024-01-16T06:53:45;1.90;99.90
13251;DHT22;6692;50.710;7.180;2024-01-16T06:55:47;1.90;99.90
13251;DHT22;6692;50.710;7.180;2024-01-16T06:57:47;1.80;99.90
13251;DHT22;6692;50.710;7.180;2024-01-16T06:59:48;1.90;99.90
13251;DHT22;6692;50.710;7.180;2024-01-16T07:01:49;1.90;99.90
13251;DHT22;6692;50.710;7.180;2024-01-16T07:03:50;1.90;99.90
13251;DHT22;6692;50.710;7.180;2024-01-16T07:05:51;1.80;99.90
13251;DHT22;6692;50.710;7.180;2024-01-16T07:07:52;1.90;99.90
13251;DHT22;6692;50.710;7.180;2024-01-16T07:09:53;1.90;99.90
13251;DHT22;6692;50.710;7.180;2024-01-16T07:11:53;1.80;99.90
13251;DHT22;6692;50.710;7.180;2024-01-16T07:13:54;1.80;99.90
13251;DHT22;6692;50.710;7.180;2024-01-16T07:15:55;1.80;99.90
13251;DHT22;6692;50.710;7.180;2024-01-16T07:17:55;1.80;99.90
13251;DHT22;6692;50.710;7.180;2024-01-16T07:19:56;1.80;99.90
13251;DHT22;6692;50.710;7.180;2024-01-16T07:21:58;1.70;99.90
13251;DHT22;6692;50.710;7.180;2024-01-16T07:23:58;1.70;99.90
13251;DHT22;6692;50.710;7.180;2024-01-16T07:25:59;1.70;99.90
13251;DHT22;6692;50.710;7.180;2024-01-16T07:28:00;1.60;99.90
13251;DHT22;6692;50.710;7.180;2024-01-16T07:30:01;1.60;99.90
13251;DHT22;6692;50.710;7.180;2024-01-16T07:32:01;1.60;99.90
13251;DHT22;6692;50.710;7.180;2024-01-16T07:34:03;1.60;99.90
13251;DHT22;6692;50.710;7.180;2024-01-16T07:36:04;1.60;99.90
13251;DHT22;6692;50.710;7.180;2024-01-16T07:38:05;1.60;99.90
13251;DHT22;6692;50.710;7.180;2024-01-16T07:40:06;1.50;99.90
13251;DHT22;6692;50.710;7.180;2024-01-16T07:42:07;1.50;99.90
13251;DHT22;6692;50.710;7.180;2024-01-16T07:44:09;1.50;99.90
13251;DHT22;6692;50.710;7.180;2024-01-16T07:46:10;1.50;99.90
13251;DHT22;6692;50.710;7.180;2024-01-16T07:48:10;1.50;99.90
13251;DHT22;6692;50.710;7.180;2024-01-16T07:50:11;1.50;99.90
13251;DHT22;6692;50.710;7.180;2024-01-16T07:52:12;1.50;99.90
13251;DHT22;6692;50.710;7.180;2024-01-16T07:54:13;1.50;99.90
13251;DHT22;6692;50.710;7.180;2024-01-16T07:56:14;1.50;99.90
13251;DHT22;6692;50.710;7.180;2024-01-16T07:58:15;1.40;99.90
13251;DHT22;6692;50.710;7.180;2024-01-16T08:00:17;1.50;99.90
13251;DHT22;6692;50.710;7.180;2024-01-16T08:02:18;1.50;99.90
13251;DHT22;6692;50.710;7.180;2024-01-16T08:04:19;1.50;99.90
13251;DHT22;6692;50.710;7.180;2024-01-16T08:06:21;1.50;99.90
13251;DHT22;6692;50.710;7.180;2024-01-16T08:08:22;1.50;99.90
13251;DHT22;6692;50.710;7.180;2024-01-16T08:10:23;1.50;99.90
13251;DHT22;6692;50.710;7.180;2024-01-16T08:12:23;1.50;99.90
13251;DHT22;6692;50.710;7.180;2024-01-16T08:14:24;1.50;99.90
13251;DHT22;6692;50.710;7.180;2024-01-16T08:16:25;1.50;99.90
13251;DHT22;6692;50.710;7.180;2024-01-16T08:18:25;1.50;99.90
13251;DHT22;6692;50.710;7.180;2024-01-16T08:20:26;1.40;99.90
13251;DHT22;6692;50.710;7.180;2024-01-16T08:24:34;1.40;99.90
13251;DHT22;6692;50.710;7.180;2024-01-16T08:26:35;1.30;99.90
13251;DHT22;6692;50.710;7.180;2024-01-16T08:28:36;1.30;99.90
13251;DHT22;6692;50.710;7.180;2024-01-16T08:30:36;1.30;99.90
13251;DHT22;6692;50.710;7.180;2024-01-16T08:32:37;1.30;99.90
13251;DHT22;6692;50.710;7.180;2024-01-16T08:34:38;1.20;99.90
13251;DHT22;6692;50.710;7.180;2024-01-16T08:36:38;1.30;99.90
13251;DHT22;6692;50.710;7.180;2024-01-16T08:38:39;1.30;99.90
13251;DHT22;6692;50.710;7.180;2024-01-16T08:40:40;1.30;99.90
13251;DHT22;6692;50.710;7.180;2024-01-16T08:42:41;1.30;99.90
13251;DHT22;6692;50.710;7.180;2024-01-16T08:44:42;1.30;99.90
13251;DHT22;6692;50.710;7.180;2024-01-16T08:46:43;1.30;99.90
13251;DHT22;6692;50.710;7.180;2024-01-16T08:48:44;1.30;99.90
13251;DHT22;6692;50.710;7.180;2024-01-16T08:50:45;1.40;99.90
13251;DHT22;6692;50.710;7.180;2024-01-16T08:52:46;1.50;99.90
13251;DHT22;6692;50.710;7.180;2024-01-16T08:54:47;1.50;99.90
13251;DHT22;6692;50.710;7.180;2024-01-16T08:56:48;1.50;99.90
13251;DHT22;6692;50.710;7.180;2024-01-16T08:58:48;1.60;99.90
13251;DHT22;6692;50.710;7.180;2024-01-16T09:00:49;1.50;99.90
13251;DHT22;6692;50.710;7.180;2024-01-16T09:02:50;1.50;99.90
13251;DHT22;6692;50.710;7.180;2024-01-16T09:04:50;1.50;99.90
13251;DHT22;6692;50.710;7.180;2024-01-16T09:06:51;1.50;99.90
13251;DHT22;6692;50.710;7.180;2024-01-16T09:08:52;1.50;99.90
13251;DHT22;6692;50.710;7.180;2024-01-16T09:10:53;1.50;99.90
13251;DHT22;6692;50.710;7.180;2024-01-16T09:12:53;1.50;99.90
13251;DHT22;6692;50.710;7.180;2024-01-16T09:14:54;1.40;99.90
13251;DHT22;6692;50.710;7.180;2024-01-16T09:16:55;1.40;99.90
13251;DHT22;6692;50.710;7.180;2024-01-16T09:18:55;1.40;99.90
13251;DHT22;6692;50.710;7.180;2024-01-16T09:20:56;1.40;99.90
13251;DHT22;6692;50.710;7.180;2024-01-16T09:22:57;1.50;99.90
13251;DHT22;6692;50.710;7.180;2024-01-16T09:24:58;1.50;99.90
13251;DHT22;6692;50.710;7.180;2024-01-16T09:26:58;1.60;99.90
13251;DHT22;6692;50.710;7.180;2024-01-16T09:28:59;1.60;99.90
13251;DHT22;6692;50.710;7.180;2024-01-16T09:31:00;1.60;99.90
13251;DHT22;6692;50.710;7.180;2024-01-16T09:33:01;1.70;99.90
13251;DHT22;6692;50.710;7.180;2024-01-16T09:35:02;1.70;99.90
13251;DHT22;6692;50.710;7.180;2024-01-16T09:37:03;1.80;99.90
13251;DHT22;6692;50.710;7.180;2024-01-16T09:39:05;2.00;99.90
13251;DHT22;6692;50.710;7.180;2024-01-16T09:41:06;2.10;99.90
13251;DHT22;6692;50.710;7.180;2024-01-16T09:43:08;2.10;99.90
13251;DHT22;6692;50.710;7.180;2024-01-16T09:45:09;2.10;99.90
13251;DHT22;6692;50.710;7.180;2024-01-16T09:47:09;2.10;99.90
13251;DHT22;6692;50.710;7.180;2024-01-16T09:49:10;2.20;99.90
13251;DHT22;6692;50.710;7.180;2024-01-16T09:51:11;2.20;99.90
13251;DHT22;6692;50.710;7.180;2024-01-16T09:53:12;2.20;99.90
13251;DHT22;6692;50.710;7.180;2024-01-16T09:55:14;2.30;99.90
13251;DHT22;6692;50.710;7.180;2024-01-16T09:57:14;2.30;99.90
13251;DHT22;6692;50.710;7.180;2024-01-16T09:59:16;2.30;99.90
13251;DHT22;6692;50.710;7.180;2024-01-16T10:01:15;2.30;99.90
13251;DHT22;6692;50.710;7.180;2024-01-16T10:03:16;2.40;99.90
13251;DHT22;6692;50.710;7.180;2024-01-16T10:05:17;2.40;99.90
13251;DHT22;6692;50.710;7.180;2024-01-16T10:07:18;2.40;99.90
13251;DHT22;6692;50.710;7.180;2024-01-16T10:09:19;2.60;99.90
13251;DHT22;6692;50.710;7.180;2024-01-16T10:11:20;2.50;99.90
13251;DHT22;6692;50.710;7.180;2024-01-16T10:13:20;2.60;99.90
13251;DHT22;6692;50.710;7.180;2024-01-16T10:15:21;2.60;99.90
13251;DHT22;6692;50.710;7.180;2024-01-16T10:17:22;2.60;99.90
13251;DHT22;6692;50.710;7.180;2024-01-16T10:19:23;2.70;99.90
13251;DHT22;6692;50.710;7.180;2024-01-16T10:21:24;2.70;99.90
13251;DHT22;6692;50.710;7.180;2024-01-16T10:23:27;2.70;99.90
13251;DHT22;6692;50.710;7.180;2024-01-16T10:25:28;2.70;99.90
13251;DHT22;6692;50.710;7.180;2024-01-16T10:27:29;2.70;99.90
13251;DHT22;6692;50.710;7.180;2024-01-16T10:29:30;2.70;99.90
13251;DHT22;6692;50.710;7.180;2024-01-16T10:31:31;2.70;99.90
13251;DHT22;6692;50.710;7.180;2024-01-16T10:33:32;2.70;99.90
13251;DHT22;6692;50.710;7.180;2024-01-16T10:35:32;2.70;99.90
13251;DHT22;6692;50.710;7.180;2024-01-16T10:37:44;2.70;99.90
13251;DHT22;6692;50.710;7.180;2024-01-16T10:39:49;2.70;99.90
13251;DHT22;6692;50.710;7.180;2024-01-16T10:42:00;2.70;99.90
13251;DHT22;6692;50.710;7.180;2024-01-16T10:44:04;2.70;99.90
13251;DHT22;6692;50.710;7.180;2024-01-16T10:46:09;2.70;99.90
13251;DHT22;6692;50.710;7.180;2024-01-16T10:48:09;2.70;99.90
13251;DHT22;6692;50.710;7.180;2024-01-16T10:50:10;2.80;99.90
13251;DHT22;6692;50.710;7.180;2024-01-16T10:52:11;2.80;99.90
13251;DHT22;6692;50.710;7.180;2024-01-16T10:54:13;2.80;99.90
13251;DHT22;6692;50.710;7.180;2024-01-16T10:56:13;2.80;99.90
13251;DHT22;6692;50.710;7.180;2024-01-16T10:58:14;2.70;99.90
13251;DHT22;6692;50.710;7.180;2024-01-16T11:00:14;2.70;99.90
13251;DHT22;6692;50.710;7.180;2024-01-16T11:02:15;2.60;99.90
13251;DHT22;6692;50.710;7.180;2024-01-16T11:04:16;2.50;99.90
13251;DHT22;6692;50.710;7.180;2024-01-16T11:06:17;2.50;99.90
13251;DHT22;6692;50.710;7.180;2024-01-16T11:08:17;2.40;99.90
13251;DHT22;6692;50.710;7.180;2024-01-16T11:10:18;2.30;99.90
13251;DHT22;6692;50.710;7.180;2024-01-16T11:12:20;2.20;99.90
13251;DHT22;6692;50.710;7.180;2024-01-16T11:14:22;2.20;99.90
13251;DHT22;6692;50.710;7.180;2024-01-16T11:16:23;2.10;99.90
13251;DHT22;6692;50.710;7.180;2024-01-16T11:18:23;2.10;99.90
13251;DHT22;6692;50.710;7.180;2024-01-16T11:20:24;2.10;99.90
13251;DHT22;6692;50.710;7.180;2024-01-16T11:22:25;2.00;99.90
13251;DHT22;6692;50.710;7.180;2024-01-16T11:24:26;2.10;99.90
13251;DHT22;6692;50.710;7.180;2024-01-16T11:26:31;2.10;99.90
13251;DHT22;6692;50.710;7.180;2024-01-16T11:28:33;2.10;99.90
13251;DHT22;6692;50.710;7.180;2024-01-16T11:30:34;2.10;99.90
13251;DHT22;6692;50.710;7.180;2024-01-16T11:32:37;2.10;99.90
13251;DHT22;6692;50.710;7.180;2024-01-16T11:34:55;2.10;99.90
13251;DHT22;6692;50.710;7.180;2024-01-16T11:36:56;2.10;99.90
13251;DHT22;6692;50.710;7.180;2024-01-16T11:38:57;2.10;99.90
13251;DHT22;6692;50.710;7.180;2024-01-16T11:40:57;2.10;99.90
13251;DHT22;6692;50.710;7.180;2024-01-16T11:42:59;2.20;99.90
13251;DHT22;6692;50.710;7.180;2024-01-16T11:44:59;2.20;99.90
13251;DHT22;6692;50.710;7.180;2024-01-16T11:47:01;2.30;99.90
13251;DHT22;6692;50.710;7.180;2024-01-16T11:49:02;2.30;99.90
13251;DHT22;6692;50.710;7.180;2024-01-16T11:53:10;2.70;99.90
13251;DHT22;6692;50.710;7.180;2024-01-16T11:59:55;2.80;99.90
13251;DHT22;6692;50.710;7.180;2024-01-16T12:01:50;2.90;99.90
13251;DHT22;6692;50.710;7.180;2024-01-16T12:04:02;2.90;99.90
13251;DHT22;6692;50.710;7.180;2024-01-16T12:06:03;2.90;99.90
13251;DHT22;6692;50.710;7.180;2024-01-16T12:08:04;2.80;99.90
13251;DHT22;6692;50.710;7.180;2024-01-16T12:10:05;2.80;99.90
13251;DHT22;6692;50.710;7.180;2024-01-16T12:12:06;2.70;99.90
13251;DHT22;6692;50.710;7.180;2024-01-16T12:14:07;2.70;99.90
13251;DHT22;6692;50.710;7.180;2024-01-16T12:16:08;2.60;99.90
13251;DHT22;6692;50.710;7.180;2024-01-16T12:18:08;2.60;99.90
13251;DHT22;6692;50.710;7.180;2024-01-16T12:20:15;2.60;99.90
13251;DHT22;6692;50.710;7.180;2024-01-16T12:22:17;2.50;99.90
13251;DHT22;6692;50.710;7.180;2024-01-16T12:24:18;2.50;99.90
13251;DHT22;6692;50.710;7.180;2024-01-16T12:26:20;2.50;99.90
13251;DHT22;6692;50.710;7.180;2024-01-16T12:28:21;2.40;99.90
13251;DHT22;6692;50.710;7.180;2024-01-16T12:30:23;2.40;99.90
13251;DHT22;6692;50.710;7.180;2024-01-16T12:32:22;2.40;99.90
13251;DHT22;6692;50.710;7.180;2024-01-16T12:34:23;2.50;99.90
13251;DHT22;6692;50.710;7.180;2024-01-16T12:36:24;2.50;99.90
13251;DHT22;6692;50.710;7.180;2024-01-16T12:38:24;2.50;99.90
13251;DHT22;6692;50.710;7.180;2024-01-16T12:40:25;2.50;99.90
13251;DHT22;6692;50.710;7.180;2024-01-16T12:42:26;2.50;99.90
13251;DHT22;6692;50.710;7.180;2024-01-16T12:44:28;2.50;99.90
13251;DHT22;6692;50.710;7.180;2024-01-16T12:46:29;2.50;99.90
13251;DHT22;6692;50.710;7.180;2024-01-16T12:48:29;2.50;99.90
13251;DHT22;6692;50.710;7.180;2024-01-16T12:50:31;2.60;99.90
13251;DHT22;6692;50.710;7.180;2024-01-16T12:52:32;2.60;99.90
13251;DHT22;6692;50.710;7.180;2024-01-16T12:54:34;2.60;99.90
13251;DHT22;6692;50.710;7.180;2024-01-16T12:56:34;2.60;99.90
13251;DHT22;6692;50.710;7.180;2024-01-16T12:58:36;2.60;99.90
13251;DHT22;6692;50.710;7.180;2024-01-16T13:00:36;2.60;99.90
13251;DHT22;6692;50.710;7.180;2024-01-16T13:02:37;2.50;99.90
13251;DHT22;6692;50.710;7.180;2024-01-16T13:04:38;2.50;99.90
13251;DHT22;6692;50.710;7.180;2024-01-16T13:06:39;2.50;99.90
13251;DHT22;6692;50.710;7.180;2024-01-16T13:08:39;2.50;99.90
13251;DHT22;6692;50.710;7.180;2024-01-16T13:10:40;2.50;99.90
13251;DHT22;6692;50.710;7.180;2024-01-16T13:12:42;2.40;99.90
13251;DHT22;6692;50.710;7.180;2024-01-16T13:14:42;2.50;99.90
13251;DHT22;6692;50.710;7.180;2024-01-16T13:16:43;2.50;99.90
13251;DHT22;6692;50.710;7.180;2024-01-16T13:18:44;2.50;99.90